Time;durP1;ratioP1;P1;durP2;ratioP2;P2;SDS_P1;SDS_P2;PMS_P1;PMS_P2;Temp;Humidity;BMP_temperature;BMP_pressure;BME280_temperature;BME280_humidity;BME280_pressure;Samples;Min_cycle;Max_cycle;Signal;HPM_P1;HPM_P2
2021/12/07 00:01:48;;;;;;;18.70;10.60;;;;;;;;;;4991694;28;20037;-74
2021/12/07 00:04:14;;;;;;;17.15;8.88;;;;;;;;;;4992151;28;20047;-74
2021/12/07 00:06:40;;;;;;;19.35;10.15;;;;;;;;;;4991895;28;20034;-74
2021/12/07 00:09:08;;;;;;;17.15;9.73;;;;;;;;;;4991201;28;20039;-74
2021/12/07 00:11:35;;;;;;;18.08;9.70;;;;;;;;;;4991775;28;20044;-74
2021/12/07 00:14:10;;;;;;;16.92;8.90;;;;;;;;;;4992016;28;20034;-75
2021/12/07 00:16:36;;;;;;;22.15;8.65;;;;;;;;;;4991949;28;20035;-74
2021/12/07 00:19:03;;;;;;;15.45;9.20;;;;;;;;;;4992007;28;20066;-74
2021/12/07 00:21:29;;;;;;;15.50;9.18;;;;;;;;;;4991848;28;20042;-75
2021/12/07 00:23:55;;;;;;;18.10;8.50;;;;;;;;;;4991480;28;20049;-75
2021/12/07 00:26:21;;;;;;;16.13;8.50;;;;;;;;;;4991868;28;20570;-75
2021/12/07 00:28:50;;;;;;;15.75;8.60;;;;;;;;;;4991334;28;20034;-75
2021/12/07 00:31:30;;;;;;;16.55;9.05;;;;;;;;;;4992112;28;20049;-75
2021/12/07 00:36:38;;;;;;;15.02;9.55;;;;;;;;;;4991620;28;20026;-74
2021/12/07 00:39:06;;;;;;;14.70;9.05;;;;;;;;;;4991968;28;20053;-74
2021/12/07 00:41:32;;;;;;;16.13;9.43;;;;;;;;;;4990306;28;20049;-74
2021/12/07 00:43:59;;;;;;;16.27;8.93;;;;;;;;;;4991612;28;20046;-74
2021/12/07 00:46:26;;;;;;;15.23;8.65;;;;;;;;;;4991594;28;20477;-74
2021/12/07 00:48:52;;;;;;;18.23;9.07;;;;;;;;;;4991526;28;20042;-75
2021/12/07 00:51:18;;;;;;;16.60;8.95;;;;;;;;;;4991621;28;20138;-74
2021/12/07 00:53:44;;;;;;;17.77;9.13;;;;;;;;;;4991514;28;20046;-75
2021/12/07 00:56:10;;;;;;;17.30;9.48;;;;;;;;;;4992096;28;20034;-74
2021/12/07 00:58:36;;;;;;;16.42;8.90;;;;;;;;;;4995494;28;20034;-74
2021/12/07 01:01:06;;;;;;;18.55;10.07;;;;;;;;;;4995416;28;20499;-74
2021/12/07 01:03:33;;;;;;;15.48;9.45;;;;;;;;;;4994658;28;20042;-74
2021/12/07 01:25:03;;;;;;;17.90;9.43;;;;;;;;;;4994760;28;20050;-74
2021/12/07 01:27:28;;;;;;;16.83;9.13;;;;;;;;;;4994921;28;20534;-73
2021/12/07 01:30:07;;;;;;;18.17;9.57;;;;;;;;;;4995110;28;20050;-74
2021/12/07 01:40:45;;;;;;;11.60;6.55;;;;;;;;;;4994860;28;20035;-74
2021/12/07 01:51:31;;;;;;;5.90;3.20;;;;;;;;;;4995319;28;20030;-74
2021/12/07 01:59:37;;;;;;;4.60;2.65;;;;;;;;;;4995243;28;20034;-74
2021/12/07 02:02:07;;;;;;;6.18;2.80;;;;;;;;;;4992830;28;20042;-73
2021/12/07 02:04:34;;;;;;;5.13;2.60;;;;;;;;;;4993306;28;20022;-74
2021/12/07 02:07:00;;;;;;;4.85;2.72;;;;;;;;;;4993806;28;20042;-75
2021/12/07 02:09:26;;;;;;;5.07;2.80;;;;;;;;;;4992878;28;20050;-74
2021/12/07 02:11:58;;;;;;;5.43;2.70;;;;;;;;;;4993647;28;20042;-75
2021/12/07 02:14:25;;;;;;;5.80;2.85;;;;;;;;;;4993431;28;20600;-74
2021/12/07 02:16:54;;;;;;;5.45;2.75;;;;;;;;;;4993350;28;20033;-74
2021/12/07 02:19:22;;;;;;;6.22;2.75;;;;;;;;;;4993686;28;20065;-74
2021/12/07 02:21:48;;;;;;;5.55;3.00;;;;;;;;;;4993525;28;20069;-74
2021/12/07 02:24:14;;;;;;;6.22;3.20;;;;;;;;;;4993233;28;20038;-74
2021/12/07 02:26:40;;;;;;;8.48;3.58;;;;;;;;;;4993116;28;20031;-74
2021/12/07 02:29:06;;;;;;;6.43;3.10;;;;;;;;;;4993256;28;20112;-74
2021/12/07 02:31:33;;;;;;;9.45;3.50;;;;;;;;;;4992920;28;20030;-74
2021/12/07 02:34:00;;;;;;;7.20;3.05;;;;;;;;;;4993185;28;20042;-74
2021/12/07 02:36:27;;;;;;;9.50;3.92;;;;;;;;;;4993252;28;20039;-74
2021/12/07 02:38:53;;;;;;;5.63;3.60;;;;;;;;;;4992793;28;20038;-74
2021/12/07 02:41:19;;;;;;;6.03;3.53;;;;;;;;;;4992804;28;20472;-74
2021/12/07 02:43:45;;;;;;;6.85;3.75;;;;;;;;;;4992922;28;20026;-74
2021/12/07 02:46:12;;;;;;;7.57;3.67;;;;;;;;;;4993155;28;20039;-74
2021/12/07 02:48:38;;;;;;;8.65;3.47;;;;;;;;;;4992475;28;20057;-74
2021/12/07 02:51:04;;;;;;;9.82;3.67;;;;;;;;;;4992778;28;20049;-74
2021/12/07 02:53:36;;;;;;;9.93;3.88;;;;;;;;;;4992630;28;20041;-74
2021/12/07 02:56:04;;;;;;;5.25;2.92;;;;;;;;;;4992710;28;20106;-74
2021/12/07 02:58:31;;;;;;;6.63;3.22;;;;;;;;;;4991212;28;20034;-74
2021/12/07 03:01:08;;;;;;;6.40;3.30;;;;;;;;;;4992823;28;20487;-74
2021/12/07 03:03:39;;;;;;;7.30;3.20;;;;;;;;;;4993442;28;20416;-74
2021/12/07 03:27:37;;;;;;;8.65;2.38;;;;;;;;;;4997547;28;20042;-74
2021/12/07 03:30:07;;;;;;;10.07;2.40;;;;;;;;;;4992301;28;20034;-74
2021/12/07 03:32:33;;;;;;;8.30;2.70;;;;;;;;;;4990756;28;20057;-75
2021/12/07 03:34:58;;;;;;;6.03;2.50;;;;;;;;;;4992019;28;20057;-75
2021/12/07 03:37:24;;;;;;;6.25;2.55;;;;;;;;;;4991802;28;20026;-75
2021/12/07 03:39:50;;;;;;;5.45;2.15;;;;;;;;;;4992012;28;20046;-74
2021/12/07 03:42:16;;;;;;;9.50;2.20;;;;;;;;;;4992145;28;20042;-75
2021/12/07 03:44:42;;;;;;;6.60;2.38;;;;;;;;;;4991926;28;20043;-75
2021/12/07 03:47:08;;;;;;;8.70;2.33;;;;;;;;;;4992390;28;20069;-75
2021/12/07 03:49:34;;;;;;;6.30;2.58;;;;;;;;;;4991634;28;20073;-75
2021/12/07 03:51:59;;;;;;;7.63;2.67;;;;;;;;;;4991939;28;20539;-75
2021/12/07 03:54:25;;;;;;;8.57;2.58;;;;;;;;;;4990573;28;20116;-74
2021/12/07 03:56:51;;;;;;;5.15;2.15;;;;;;;;;;4991667;28;20022;-74
2021/12/07 03:59:17;;;;;;;9.82;2.10;;;;;;;;;;4991552;28;20042;-73
2021/12/07 04:01:43;;;;;;;9.55;2.20;;;;;;;;;;4991711;28;20066;-74
2021/12/07 04:04:09;;;;;;;10.15;2.25;;;;;;;;;;4991586;28;20022;-75
2021/12/07 04:06:35;;;;;;;7.32;2.33;;;;;;;;;;4991342;28;20421;-74
2021/12/07 04:09:02;;;;;;;5.15;2.10;;;;;;;;;;4991899;28;20046;-74
2021/12/07 04:11:28;;;;;;;7.65;2.15;;;;;;;;;;4991368;28;20041;-74
2021/12/07 04:13:54;;;;;;;6.72;2.42;;;;;;;;;;4991507;28;20069;-74
2021/12/07 04:16:20;;;;;;;6.97;2.30;;;;;;;;;;4991570;28;20069;-74
2021/12/07 04:18:46;;;;;;;7.40;2.47;;;;;;;;;;4991547;28;20377;-74
2021/12/07 04:21:13;;;;;;;9.18;2.50;;;;;;;;;;4991623;28;20042;-74
2021/12/07 04:23:39;;;;;;;9.60;2.80;;;;;;;;;;4991494;28;20043;-76
2021/12/07 04:26:08;;;;;;;12.18;2.00;;;;;;;;;;4991918;28;20130;-75
2021/12/07 04:28:35;;;;;;;14.43;2.47;;;;;;;;;;4991709;28;20050;-75
2021/12/07 04:31:01;;;;;;;12.65;2.45;;;;;;;;;;4989858;28;20432;-74
2021/12/07 04:33:30;;;;;;;11.10;2.08;;;;;;;;;;4984539;28;20440;-74
2021/12/07 04:35:57;;;;;;;5.68;2.33;;;;;;;;;;4971772;28;20034;-74
2021/12/07 04:38:23;;;;;;;8.18;2.15;;;;;;;;;;4977839;28;20397;-74
2021/12/07 04:40:49;;;;;;;5.75;2.45;;;;;;;;;;4990965;28;20042;-74
2021/12/07 04:43:15;;;;;;;7.45;2.15;;;;;;;;;;4991098;28;20100;-74
2021/12/07 04:59:00;;;;;;;7.10;2.08;;;;;;;;;;4991107;28;20038;-74
2021/12/07 05:01:26;;;;;;;7.07;2.58;;;;;;;;;;5005262;28;20382;-75
2021/12/07 05:03:56;;;;;;;10.23;2.33;;;;;;;;;;4991305;28;20018;-75
2021/12/07 05:06:26;;;;;;;7.05;2.38;;;;;;;;;;4981155;28;20243;-75
2021/12/07 05:09:06;;;;;;;7.40;2.08;;;;;;;;;;4980997;28;20037;-75
2021/12/07 05:14:35;;;;;;;5.68;2.53;;;;;;;;;;4982427;28;20043;-76
2021/12/07 05:17:20;;;;;;;7.72;1.80;;;;;;;;;;4972840;28;20046;-75
2021/12/07 05:38:40;;;;;;;8.00;2.08;;;;;;;;;;4986527;28;20030;-70
2021/12/07 05:41:07;;;;;;;9.73;2.35;;;;;;;;;;4987946;28;20046;-75
2021/12/07 05:43:35;;;;;;;7.70;2.00;;;;;;;;;;4981966;28;20041;-76
2021/12/07 05:46:02;;;;;;;7.20;2.28;;;;;;;;;;4994431;28;20038;-75
2021/12/07 05:48:28;;;;;;;6.40;2.10;;;;;;;;;;4994188;28;20041;-76
2021/12/07 05:50:54;;;;;;;8.38;2.00;;;;;;;;;;4992649;28;20607;-76
2021/12/07 05:53:20;;;;;;;9.15;1.92;;;;;;;;;;4993794;28;20512;-77
2021/12/07 05:55:46;;;;;;;9.50;2.25;;;;;;;;;;4987033;28;20052;-77
2021/12/07 05:58:13;;;;;;;7.45;2.20;;;;;;;;;;4977685;28;20053;-77
2021/12/07 06:00:43;;;;;;;5.55;2.00;;;;;;;;;;4983845;28;20050;-75
2021/12/07 06:03:09;;;;;;;9.35;2.13;;;;;;;;;;4984407;28;20396;-77
2021/12/07 06:05:38;;;;;;;8.35;2.35;;;;;;;;;;4991242;28;20030;-75
2021/12/07 06:08:04;;;;;;;6.47;1.75;;;;;;;;;;4988273;28;20050;-77
2021/12/07 06:10:30;;;;;;;10.20;2.60;;;;;;;;;;4981881;28;21156;-77
2021/12/07 06:12:57;;;;;;;10.35;2.22;;;;;;;;;;4985763;28;20038;-77
2021/12/07 06:15:24;;;;;;;7.55;2.30;;;;;;;;;;4987017;28;20050;-77
2021/12/07 06:17:51;;;;;;;7.45;2.28;;;;;;;;;;4986835;28;20134;-76
2021/12/07 06:20:19;;;;;;;8.13;2.20;;;;;;;;;;4984368;28;20042;-75
2021/12/07 06:22:45;;;;;;;5.63;2.03;;;;;;;;;;4987809;28;20041;-75
2021/12/07 06:25:12;;;;;;;6.00;2.08;;;;;;;;;;5007972;28;20046;-74
2021/12/07 06:27:39;;;;;;;30.25;14.43;;;;;;;;;;4975216;28;20042;-75
2021/12/07 06:30:07;;;;;;;10.35;2.97;;;;;;;;;;4989876;28;20038;-75
2021/12/07 06:32:34;;;;;;;11.02;2.95;;;;;;;;;;5004544;28;20054;-75
2021/12/07 06:35:00;;;;;;;7.45;2.38;;;;;;;;;;4983226;28;20030;-75
2021/12/07 06:37:26;;;;;;;7.60;1.98;;;;;;;;;;4987375;28;20046;-75
2021/12/07 06:39:52;;;;;;;12.40;2.50;;;;;;;;;;4984772;28;20634;-76
2021/12/07 06:42:18;;;;;;;10.68;2.40;;;;;;;;;;4985289;28;20042;-75
2021/12/07 06:44:44;;;;;;;6.28;2.42;;;;;;;;;;4987336;28;20130;-75
2021/12/07 06:47:10;;;;;;;9.65;2.25;;;;;;;;;;4992060;28;20046;-75
2021/12/07 06:49:37;;;;;;;11.65;2.60;;;;;;;;;;4991570;28;20488;-75
2021/12/07 06:52:03;;;;;;;6.15;2.00;;;;;;;;;;4984053;28;20043;-76
2021/12/07 06:54:29;;;;;;;8.32;2.53;;;;;;;;;;4982107;28;20480;-78
2021/12/07 06:56:55;;;;;;;9.73;2.90;;;;;;;;;;4987158;28;20050;-77
2021/12/07 06:59:21;;;;;;;9.02;2.20;;;;;;;;;;4986532;28;20038;-75
2021/12/07 07:01:48;;;;;;;14.05;2.97;;;;;;;;;;4992795;28;20450;-76
2021/12/07 07:04:14;;;;;;;11.35;3.10;;;;;;;;;;4992063;28;20042;-75
2021/12/07 07:06:42;;;;;;;10.13;2.50;;;;;;;;;;4993134;28;20022;-75
2021/12/07 07:09:08;;;;;;;7.43;2.08;;;;;;;;;;4992861;28;20488;-75
2021/12/07 07:11:34;;;;;;;6.18;2.55;;;;;;;;;;4987546;28;20043;-77
2021/12/07 07:14:01;;;;;;;10.00;2.30;;;;;;;;;;4985522;28;20453;-76
2021/12/07 07:16:28;;;;;;;9.38;2.95;;;;;;;;;;4995412;28;20022;-75
2021/12/07 07:18:55;;;;;;;6.00;2.50;;;;;;;;;;4993779;28;20045;-75
2021/12/07 07:21:22;;;;;;;8.95;2.53;;;;;;;;;;4989634;28;20444;-75
2021/12/07 07:23:49;;;;;;;7.47;2.70;;;;;;;;;;5005441;28;20047;-75
2021/12/07 07:26:15;;;;;;;10.18;2.63;;;;;;;;;;4991007;28;20030;-75
2021/12/07 07:28:42;;;;;;;4.40;2.05;;;;;;;;;;4991083;28;20400;-76
2021/12/07 07:31:09;;;;;;;7.68;2.38;;;;;;;;;;4988694;28;20053;-75
2021/12/07 07:33:36;;;;;;;8.77;2.30;;;;;;;;;;4991399;28;20075;-75
2021/12/07 07:36:03;;;;;;;6.10;2.10;;;;;;;;;;4992362;28;20045;-77
2021/12/07 07:38:29;;;;;;;8.45;2.40;;;;;;;;;;4991969;28;20047;-76
2021/12/07 07:40:55;;;;;;;12.45;2.45;;;;;;;;;;4989914;28;20022;-75
2021/12/07 07:43:21;;;;;;;9.85;2.55;;;;;;;;;;4990530;28;20046;-76
2021/12/07 07:45:50;;;;;;;12.98;4.68;;;;;;;;;;4991963;28;20026;-75
2021/12/07 07:48:18;;;;;;;11.52;4.70;;;;;;;;;;4977324;28;20509;-75
2021/12/07 07:50:44;;;;;;;9.90;2.83;;;;;;;;;;4991759;28;20069;-76
2021/12/07 07:53:10;;;;;;;10.00;2.28;;;;;;;;;;4991536;28;20496;-75
2021/12/07 07:55:38;;;;;;;8.32;2.25;;;;;;;;;;4982484;28;20050;-77
2021/12/07 07:58:05;;;;;;;8.95;3.08;;;;;;;;;;4985670;28;20057;-77
2021/12/07 08:00:31;;;;;;;12.07;2.30;;;;;;;;;;4990889;28;20050;-74
2021/12/07 08:02:57;;;;;;;8.05;2.13;;;;;;;;;;4976541;28;20037;-76
2021/12/07 08:05:23;;;;;;;9.90;2.55;;;;;;;;;;4990772;28;20042;-75
2021/12/07 08:07:50;;;;;;;9.45;2.30;;;;;;;;;;4990999;28;20050;-75
2021/12/07 08:10:21;;;;;;;5.18;1.92;;;;;;;;;;4991665;28;20050;-75
2021/12/07 08:12:48;;;;;;;8.40;2.38;;;;;;;;;;4991551;28;20061;-74
2021/12/07 08:15:15;;;;;;;7.88;1.90;;;;;;;;;;4993919;28;20038;-75
2021/12/07 08:17:41;;;;;;;6.53;2.00;;;;;;;;;;4984221;28;20054;-75
2021/12/07 08:20:08;;;;;;;9.45;2.05;;;;;;;;;;4982788;28;20504;-76
2021/12/07 08:22:34;;;;;;;18.95;7.40;;;;;;;;;;4979734;28;20189;-75
2021/12/07 08:25:00;;;;;;;8.70;2.70;;;;;;;;;;4976935;28;20492;-75
2021/12/07 08:27:27;;;;;;;8.48;1.83;;;;;;;;;;4985515;28;20070;-75
2021/12/07 08:29:53;;;;;;;8.75;1.95;;;;;;;;;;4977162;28;20394;-75
2021/12/07 08:32:19;;;;;;;8.30;1.92;;;;;;;;;;4971829;28;20272;-76
2021/12/07 08:34:45;;;;;;;6.75;2.10;;;;;;;;;;4975801;28;20105;-75
2021/12/07 08:37:11;;;;;;;8.45;2.38;;;;;;;;;;4986635;28;20043;-77
2021/12/07 08:39:37;;;;;;;6.55;1.92;;;;;;;;;;4990715;28;20959;-75
2021/12/07 08:42:04;;;;;;;11.38;2.33;;;;;;;;;;4991293;28;20476;-74
2021/12/07 08:44:31;;;;;;;9.63;2.30;;;;;;;;;;4997609;28;20046;-74
2021/12/07 08:46:58;;;;;;;6.72;1.90;;;;;;;;;;5011335;28;20045;-76
2021/12/07 08:49:24;;;;;;;7.18;1.95;;;;;;;;;;5012334;28;20010;-75
2021/12/07 08:51:51;;;;;;;5.05;1.90;;;;;;;;;;4997366;28;20039;-75
2021/12/07 08:59:42;;;;;;;7.80;1.90;;;;;;;;;;4997455;28;20042;-74
2021/12/07 09:02:08;;;;;;;7.63;1.90;;;;;;;;;;5004427;28;20033;-74
2021/12/07 09:04:34;;;;;;;4.38;1.90;;;;;;;;;;4996876;28;20125;-76
2021/12/07 09:07:00;;;;;;;6.53;2.00;;;;;;;;;;5000023;28;20049;-75
2021/12/07 09:09:28;;;;;;;13.40;4.78;;;;;;;;;;5006020;28;20046;-75
2021/12/07 09:11:55;;;;;;;10.82;3.15;;;;;;;;;;4997193;28;20053;-73
2021/12/07 09:14:22;;;;;;;5.97;2.13;;;;;;;;;;5001002;28;20034;-76
2021/12/07 09:16:48;;;;;;;8.05;1.92;;;;;;;;;;5004937;28;20046;-74
2021/12/07 09:19:15;;;;;;;8.48;2.15;;;;;;;;;;4986799;28;20023;-76
2021/12/07 09:21:41;;;;;;;7.05;1.85;;;;;;;;;;4979833;28;20042;-75
2021/12/07 09:24:08;;;;;;;7.65;2.10;;;;;;;;;;4987641;28;20042;-76
2021/12/07 09:26:35;;;;;;;7.90;1.98;;;;;;;;;;4977381;28;20489;-75
2021/12/07 09:29:02;;;;;;;7.07;2.00;;;;;;;;;;4984057;28;20039;-75
2021/12/07 09:31:28;;;;;;;8.35;2.15;;;;;;;;;;4995814;28;20453;-75
2021/12/07 09:33:55;;;;;;;6.55;2.00;;;;;;;;;;4995981;28;20052;-75
2021/12/07 09:36:22;;;;;;;7.18;2.15;;;;;;;;;;4994889;28;20065;-76
2021/12/07 09:38:49;;;;;;;7.18;2.28;;;;;;;;;;4976254;28;20027;-75
2021/12/07 09:41:15;;;;;;;10.38;2.60;;;;;;;;;;4976003;28;20496;-75
2021/12/07 09:43:41;;;;;;;8.48;2.20;;;;;;;;;;4976573;28;20050;-75
2021/12/07 09:46:09;;;;;;;5.80;2.08;;;;;;;;;;4990778;28;20337;-75
2021/12/07 09:48:36;;;;;;;8.43;1.90;;;;;;;;;;4986068;28;20037;-76
2021/12/07 09:51:04;;;;;;;8.23;2.30;;;;;;;;;;4995336;28;20045;-74
2021/12/07 09:53:30;;;;;;;8.32;2.40;;;;;;;;;;4994362;28;20034;-75
2021/12/07 09:55:57;;;;;;;7.32;2.20;;;;;;;;;;4994234;28;20404;-76
2021/12/07 09:58:23;;;;;;;9.15;2.63;;;;;;;;;;4978184;28;20039;-75
2021/12/07 10:00:51;;;;;;;9.52;2.58;;;;;;;;;;4987645;28;20477;-75
2021/12/07 10:03:18;;;;;;;11.75;2.53;;;;;;;;;;4984992;28;20042;-75
2021/12/07 10:05:45;;;;;;;9.20;3.58;;;;;;;;;;4984625;28;20038;-74
2021/12/07 10:08:11;;;;;;;12.07;4.70;;;;;;;;;;4977972;28;20035;-74
2021/12/07 10:10:41;;;;;;;18.30;7.10;;;;;;;;;;4990186;28;20432;-74
2021/12/07 10:13:08;;;;;;;9.90;3.03;;;;;;;;;;4978644;28;20038;-74
2021/12/07 10:15:35;;;;;;;7.70;2.40;;;;;;;;;;4988780;28;20042;-75
2021/12/07 10:18:15;;;;;;;8.82;2.38;;;;;;;;;;4993393;28;20029;-75
2021/12/07 10:20:47;;;;;;;9.50;2.22;;;;;;;;;;4994254;28;20373;-75
2021/12/07 10:23:21;;;;;;;8.95;2.50;;;;;;;;;;4994274;28;20038;-75
2021/12/07 10:25:56;;;;;;;9.52;2.53;;;;;;;;;;4992885;28;20030;-75
2021/12/07 10:28:31;;;;;;;5.10;1.80;;;;;;;;;;4993923;28;20039;-75
2021/12/07 10:31:03;;;;;;;9.25;2.17;;;;;;;;;;4993545;28;20034;-75
2021/12/07 10:33:42;;;;;;;7.70;2.45;;;;;;;;;;4992378;28;20441;-75
2021/12/07 10:36:21;;;;;;;10.27;2.53;;;;;;;;;;4993818;28;20050;-76
2021/12/07 10:39:04;;;;;;;8.20;1.95;;;;;;;;;;4993185;28;20049;-75
2021/12/07 10:41:34;;;;;;;10.30;2.25;;;;;;;;;;4993463;28;20038;-75
2021/12/07 10:44:05;;;;;;;6.03;1.80;;;;;;;;;;4991923;28;20049;-75
2021/12/07 10:46:36;;;;;;;12.70;2.50;;;;;;;;;;4985700;28;20049;-75
2021/12/07 10:49:22;;;;;;;6.65;1.98;;;;;;;;;;4992616;28;20034;-75
2021/12/07 10:52:33;;;;;;;6.38;2.05;;;;;;;;;;4993961;28;20041;-75
2021/12/07 10:55:24;;;;;;;7.95;2.28;;;;;;;;;;4987766;28;20046;-76
2021/12/07 10:57:58;;;;;;;6.18;2.03;;;;;;;;;;4993300;28;20042;-76
2021/12/07 11:00:44;;;;;;;8.80;1.90;;;;;;;;;;4992662;28;20045;-76
2021/12/07 11:03:18;;;;;;;8.73;2.20;;;;;;;;;;4993180;28;20492;-76
2021/12/07 11:05:51;;;;;;;10.45;2.05;;;;;;;;;;4993139;28;20042;-76
2021/12/07 11:08:25;;;;;;;28.63;13.35;;;;;;;;;;4993065;28;20049;-76
2021/12/07 11:10:52;;;;;;;11.90;2.20;;;;;;;;;;4993087;28;20046;-76
2021/12/07 11:13:26;;;;;;;9.93;1.95;;;;;;;;;;4993072;28;20038;-76
2021/12/07 11:15:58;;;;;;;7.88;1.80;;;;;;;;;;4993060;28;20042;-76
2021/12/07 11:18:34;;;;;;;7.13;2.10;;;;;;;;;;4992768;28;20404;-76
2021/12/07 11:21:03;;;;;;;6.88;1.90;;;;;;;;;;4992594;28;20042;-76
2021/12/07 11:23:37;;;;;;;6.68;1.80;;;;;;;;;;4992614;28;20042;-75
2021/12/07 11:31:37;;;;;;;7.32;2.13;;;;;;;;;;4996549;28;20038;-76
2021/12/07 11:34:18;;;;;;;7.22;1.90;;;;;;;;;;4992715;28;20042;-76
2021/12/07 11:36:50;;;;;;;;;;;;;;;;;;4993317;28;20042;-76
2021/12/07 11:39:22;;;;;;;10.75;2.10;;;;;;;;;;4990921;28;20283;-74
2021/12/07 11:41:53;;;;;;;9.18;2.10;;;;;;;;;;4991709;28;20521;-73
2021/12/07 11:44:21;;;;;;;5.97;2.17;;;;;;;;;;4992453;28;20050;-73
2021/12/07 11:46:49;;;;;;;6.18;2.28;;;;;;;;;;4991082;28;20034;-73
2021/12/07 11:49:20;;;;;;;8.02;2.40;;;;;;;;;;4992272;28;20043;-76
2021/12/07 11:51:48;;;;;;;9.25;2.13;;;;;;;;;;4992535;28;20396;-74
2021/12/07 11:54:16;;;;;;;8.65;2.50;;;;;;;;;;4992429;28;20069;-73
2021/12/07 11:56:44;;;;;;;13.32;2.65;;;;;;;;;;4992011;28;20038;-75
2021/12/07 11:59:10;;;;;;;8.57;2.50;;;;;;;;;;4976310;28;20414;-75
2021/12/07 12:01:37;;;;;;;8.68;2.03;;;;;;;;;;4980140;28;20044;-75
2021/12/07 12:04:03;;;;;;;7.80;2.08;;;;;;;;;;4991793;28;20035;-75
2021/12/07 12:06:30;;;;;;;6.90;1.95;;;;;;;;;;4972820;28;20035;-77
2021/12/07 12:08:57;;;;;;;6.97;1.95;;;;;;;;;;4981867;28;20485;-78
2021/12/07 12:11:59;;;;;;;11.20;2.13;;;;;;;;;;4991310;28;20046;-78
2021/12/07 12:14:31;;;;;;;7.40;1.70;;;;;;;;;;4975487;28;20053;-77
2021/12/07 12:17:22;;;;;;;6.82;1.60;;;;;;;;;;4980375;28;20045;-75
2021/12/07 12:20:06;;;;;;;5.83;1.87;;;;;;;;;;4987249;28;20039;-75
2021/12/07 12:22:35;;;;;;;11.57;1.90;;;;;;;;;;4985711;28;20041;-76
2021/12/07 12:25:06;;;;;;;6.93;2.05;;;;;;;;;;4991815;28;20061;-76
2021/12/07 12:27:33;;;;;;;;;;;;;;;;;;4976390;28;20043;-75
2021/12/07 12:30:05;;;;;;;8.68;1.80;;;;;;;;;;4991417;28;19920;-76
2021/12/07 12:32:36;;;;;;;7.65;2.15;;;;;;;;;;4991209;28;20383;-76
2021/12/07 12:35:05;;;;;;;10.23;2.28;;;;;;;;;;4978265;28;20031;-75
2021/12/07 12:37:33;;;;;;;8.27;1.65;;;;;;;;;;4988109;28;20034;-76
2021/12/07 12:40:08;;;;;;;9.90;1.80;;;;;;;;;;4980186;28;20042;-75
2021/12/07 12:42:42;;;;;;;5.25;1.65;;;;;;;;;;4984830;28;20035;-75
2021/12/07 12:45:17;;;;;;;8.30;2.00;;;;;;;;;;4983351;28;20054;-77
2021/12/07 12:47:44;;;;;;;7.70;1.80;;;;;;;;;;4988441;28;20030;-77
2021/12/07 12:50:17;;;;;;;14.70;5.85;;;;;;;;;;4987990;28;20053;-77
2021/12/07 12:52:54;;;;;;;7.93;2.63;;;;;;;;;;4987969;28;20046;-75
2021/12/07 12:56:03;;;;;;;5.95;1.77;;;;;;;;;;4992173;28;20077;-75
2021/12/07 12:58:30;;;;;;;7.97;2.00;;;;;;;;;;4973715;28;20042;-75
2021/12/07 13:01:09;;;;;;;16.20;2.95;;;;;;;;;;4994961;28;20377;-75
2021/12/07 13:03:41;;;;;;;10.45;2.35;;;;;;;;;;4975847;28;20039;-75
2021/12/07 13:06:07;;;;;;;9.90;1.70;;;;;;;;;;4975596;28;20039;-75
2021/12/07 13:08:51;;;;;;;6.47;2.47;;;;;;;;;;4974633;28;20039;-75
2021/12/07 13:11:35;;;;;;;7.07;2.30;;;;;;;;;;4976360;28;20050;-75
2021/12/07 13:14:12;;;;;;;8.02;2.40;;;;;;;;;;4975628;28;20030;-76
2021/12/07 13:16:52;;;;;;;14.15;2.95;;;;;;;;;;4975875;28;20062;-75
2021/12/07 13:19:19;;;;;;;8.02;2.40;;;;;;;;;;4978861;28;20041;-76
2021/12/07 13:21:47;;;;;;;6.50;2.17;;;;;;;;;;4987908;28;20042;-76
2021/12/07 13:24:38;;;;;;;9.95;3.03;;;;;;;;;;4993127;28;20480;-76
2021/12/07 13:27:11;;;;;;;13.30;2.60;;;;;;;;;;4986096;28;20047;-76
2021/12/07 13:29:45;;;;;;;7.60;2.63;;;;;;;;;;4987548;28;20492;-76
2021/12/07 13:32:10;;;;;;;10.55;2.70;;;;;;;;;;4992792;28;20057;-76
2021/12/07 13:34:38;;;;;;;8.88;3.08;;;;;;;;;;4994673;28;20381;-76
2021/12/07 13:37:06;;;;;;;8.45;2.47;;;;;;;;;;4988590;28;20042;-77
2021/12/07 13:39:51;;;;;;;9.07;3.72;;;;;;;;;;4987466;28;20038;-76
2021/12/07 13:42:16;;;;;;;7.15;2.17;;;;;;;;;;4991503;28;20408;-76
2021/12/07 13:44:57;;;;;;;9.82;3.00;;;;;;;;;;4990326;28;20062;-75
2021/12/07 13:47:26;;;;;;;12.45;3.17;;;;;;;;;;4990424;28;20511;-74
2021/12/07 13:49:59;;;;;;;8.75;2.85;;;;;;;;;;4993572;28;20068;-74
2021/12/07 13:52:29;;;;;;;8.95;2.58;;;;;;;;;;4995738;28;20042;-75
2021/12/07 13:54:58;;;;;;;6.55;2.45;;;;;;;;;;4995698;28;20042;-75
2021/12/07 13:57:28;;;;;;;11.48;2.60;;;;;;;;;;4995625;28;20508;-75
2021/12/07 13:59:58;;;;;;;8.45;2.60;;;;;;;;;;4985205;28;20404;-74
2021/12/07 14:02:24;;;;;;;14.15;5.40;;;;;;;;;;4979156;28;20050;-75
2021/12/07 14:05:09;;;;;;;24.08;8.93;;;;;;;;;;4980910;28;20314;-76
2021/12/07 14:07:36;;;;;;;9.50;2.90;;;;;;;;;;4981144;28;20512;-75
2021/12/07 14:10:06;;;;;;;8.70;2.70;;;;;;;;;;4974760;28;20038;-75
2021/12/07 14:12:32;;;;;;;10.33;3.13;;;;;;;;;;4993097;28;20042;-75
2021/12/07 14:15:16;;;;;;;8.82;3.22;;;;;;;;;;4978076;28;20137;-75
2021/12/07 14:17:45;;;;;;;9.77;2.95;;;;;;;;;;4974596;28;20473;-75
2021/12/07 14:20:12;;;;;;;9.05;2.67;;;;;;;;;;4974669;28;20049;-75
2021/12/07 14:22:38;;;;;;;11.57;3.20;;;;;;;;;;4983800;28;20396;-75
2021/12/07 14:25:05;;;;;;;9.60;2.75;;;;;;;;;;4993117;28;20388;-75
2021/12/07 14:27:33;;;;;;;11.02;3.03;;;;;;;;;;4980948;28;20050;-75
2021/12/07 14:30:01;;;;;;;7.78;2.75;;;;;;;;;;4974278;28;20027;-75
2021/12/07 14:32:27;;;;;;;8.85;3.00;;;;;;;;;;4974402;28;20046;-75
2021/12/07 14:34:58;;;;;;;8.38;2.90;;;;;;;;;;4972829;28;20050;-75
2021/12/07 14:37:24;;;;;;;9.32;3.05;;;;;;;;;;4973974;28;20031;-74
2021/12/07 14:39:52;;;;;;;11.93;3.60;;;;;;;;;;4974224;28;20041;-75
2021/12/07 14:42:19;;;;;;;7.80;3.30;;;;;;;;;;4988854;28;20035;-75
2021/12/07 14:44:49;;;;;;;11.07;3.10;;;;;;;;;;4973246;28;20489;-75
2021/12/07 14:47:15;;;;;;;9.52;2.90;;;;;;;;;;4974205;28;20043;-75
2021/12/07 14:49:45;;;;;;;9.85;3.35;;;;;;;;;;4988850;28;20057;-75
2021/12/07 14:52:17;;;;;;;8.68;3.92;;;;;;;;;;4986763;28;20030;-75
2021/12/07 14:54:44;;;;;;;10.13;3.50;;;;;;;;;;4991608;28;20456;-75
2021/12/07 14:57:10;;;;;;;7.70;3.00;;;;;;;;;;4993010;28;20122;-75
2021/12/07 14:59:39;;;;;;;9.25;3.05;;;;;;;;;;4989685;28;20129;-75
2021/12/07 15:02:09;;;;;;;11.57;2.88;;;;;;;;;;4979551;28;20041;-75
2021/12/07 15:04:36;;;;;;;56.72;25.95;;;;;;;;;;4973191;28;20528;-75
2021/12/07 15:07:05;;;;;;;38.47;19.85;;;;;;;;;;4983686;28;20037;-76
2021/12/07 15:09:36;;;;;;;11.60;5.40;;;;;;;;;;4988074;28;20046;-74
2021/12/07 15:12:08;;;;;;;9.02;2.92;;;;;;;;;;4992764;28;20038;-74
2021/12/07 15:14:35;;;;;;;8.75;2.97;;;;;;;;;;4990877;28;20046;-73
2021/12/07 15:17:05;;;;;;;8.32;3.03;;;;;;;;;;4992545;28;20039;-74
2021/12/07 15:19:32;;;;;;;8.43;2.97;;;;;;;;;;4991387;28;20042;-74
2021/12/07 15:21:59;;;;;;;11.13;3.45;;;;;;;;;;4986196;28;20042;-74
2021/12/07 15:24:28;;;;;;;8.40;2.97;;;;;;;;;;4982731;28;20053;-74
2021/12/07 15:26:55;;;;;;;10.40;3.42;;;;;;;;;;4977709;28;20038;-74
2021/12/07 15:29:24;;;;;;;8.57;3.08;;;;;;;;;;4972255;28;20043;-74
2021/12/07 15:31:54;;;;;;;8.88;3.47;;;;;;;;;;4975176;28;20050;-75
2021/12/07 15:34:22;;;;;;;8.57;3.25;;;;;;;;;;4972484;28;20042;-74
2021/12/07 15:37:03;;;;;;;9.77;3.63;;;;;;;;;;4973436;28;20054;-75
2021/12/07 15:39:32;;;;;;;28.35;15.00;;;;;;;;;;4972780;28;20489;-73
2021/12/07 15:42:00;;;;;;;17.73;6.10;;;;;;;;;;4972541;28;20493;-74
2021/12/07 15:44:32;;;;;;;12.30;4.72;;;;;;;;;;4972386;28;20027;-73
2021/12/07 15:47:03;;;;;;;17.77;4.63;;;;;;;;;;4971498;28;20039;-74
2021/12/07 15:49:39;;;;;;;12.35;4.18;;;;;;;;;;4972689;28;20382;-74
2021/12/07 15:52:09;;;;;;;15.40;4.55;;;;;;;;;;4972851;28;20056;-74
2021/12/07 15:54:35;;;;;;;15.10;5.00;;;;;;;;;;4972712;28;20046;-74
2021/12/07 15:57:07;;;;;;;16.40;5.30;;;;;;;;;;4972754;28;20043;-75
2021/12/07 15:59:36;;;;;;;15.48;5.57;;;;;;;;;;4970516;28;20035;-74
2021/12/07 16:02:05;;;;;;;14.57;5.53;;;;;;;;;;4972438;28;20468;-76
2021/12/07 16:04:34;;;;;;;17.80;7.35;;;;;;;;;;4972537;28;20022;-75
2021/12/07 16:07:18;;;;;;;15.32;6.78;;;;;;;;;;4972393;28;20027;-74
2021/12/07 16:09:44;;;;;;;16.00;6.68;;;;;;;;;;4971295;28;20038;-75
2021/12/07 16:12:12;;;;;;;16.33;7.57;;;;;;;;;;4972382;28;20413;-74
2021/12/07 16:14:38;;;;;;;22.17;8.85;;;;;;;;;;4972273;28;20035;-74
2021/12/07 16:17:15;;;;;;;27.98;9.70;;;;;;;;;;4990211;28;20112;-75
2021/12/07 16:19:40;;;;;;;30.77;16.58;;;;;;;;;;4991676;28;20030;-74
2021/12/07 16:22:06;;;;;;;42.42;22.35;;;;;;;;;;4993845;28;20048;-74
2021/12/07 16:24:32;;;;;;;29.05;15.85;;;;;;;;;;4993058;28;20074;-75
2021/12/07 16:26:58;;;;;;;18.42;6.50;;;;;;;;;;4992605;28;20065;-75
2021/12/07 16:29:24;;;;;;;14.63;6.55;;;;;;;;;;4993827;28;20062;-75
2021/12/07 16:31:50;;;;;;;16.88;6.00;;;;;;;;;;4993030;28;20064;-75
2021/12/07 16:34:17;;;;;;;15.73;5.13;;;;;;;;;;4993026;28;20038;-75
2021/12/07 16:36:45;;;;;;;16.65;5.60;;;;;;;;;;4996106;28;20050;-75
2021/12/07 16:39:11;;;;;;;16.38;5.53;;;;;;;;;;4991802;28;20038;-75
2021/12/07 16:41:37;;;;;;;15.82;5.00;;;;;;;;;;4993007;28;20500;-74